• Join FlightAware (Why Join?)
  • Login
  • US Flag 
08:41PM EDT


 

Airport Tracker/Info


-or-


 

Live Flight TrackerFlight Track Log ✈ WBR2620 ✈ 13-May-2013 ✈ KBRL - KORD

Flight Track Log - Related Links

Times and Time Zones

All times are in EDT time to prevent confusion due to time zone crossing. See the WBR2620 flight status page for this flight to view local times or setup timezone preferences in your user account.

Time Position Orientation Groundspeed Altitude Reporting Facility
EDT Latitude Longitude Course Direction KTS MPH feet Rate Location/Type
07:10AM 40.7942 -91.1239 73° East 82 94 1,300  Level Chicago Center
07:11AM 40.8219 -91.1097 21° North 118 136 2,100 720 Climbing Chicago Center
07:12AM 40.8336 -91.0600 73° East 138 159 2,800 660 Climbing Chicago Center
07:13AM 40.8572 -90.7857 57° Northeast  Level FlightAware Approximate
07:13AM 40.8542 -91.0025 65° Northeast 142 163 3,500  Level Chicago Center
07:14AM 40.8713 -90.7316 72° East  Level FlightAware Approximate
07:14AM 40.8708 -90.9544 65° Northeast 144 166 4,300  Level Chicago Center
07:15AM 40.8851 -90.6758 73° East  Level FlightAware Approximate
07:15AM 40.8850 -90.9056 69° East 143 165 5,000  Level Chicago Center
07:16AM 40.9036 -90.8575 63° Northeast 145 167 5,600 600 Climbing Chicago Center
07:17AM 40.9186 -90.8100 67° East 143 165 6,300 600 Climbing Chicago Center
07:18AM 40.9361 -90.7611 65° Northeast 145 167 6,900 540 Climbing Chicago Center
07:19AM 40.9514 -90.7122 68° East 145 167 7,500 600 Climbing Chicago Center
07:20AM 40.9692 -90.6647 64° Northeast 143 165 8,200 480 Climbing Chicago Center
07:21AM 40.9850 -90.6133 68° East 149 171 8,600 360 Climbing Chicago Center
07:22AM 41.0006 -90.5561 70° East 162 186 9,000 240 Climbing Chicago Center
07:23AM 41.0222 -90.4997 63° Northeast 170 196 9,100  Climbing Chicago Center
07:24AM 41.0431 -90.4369 66° East 184 212 9,000 -60 Descending Chicago Center
07:25AM 41.0625 -90.3761 67° East 180 207 9,000  Level Chicago Center
07:26AM 41.0836 -90.3089 67° East 167 192 9,000  Level Chicago Center
07:27AM 41.1036 -90.2531 65° Northeast 166 191 9,000  Level Chicago Center
07:28AM 41.1203 -90.1967 69° East 165 190 9,100  Climbing Chicago Center
07:29AM 41.1389 -90.1403 66° East 166 191 9,100  Level Chicago Center
07:30AM 41.1578 -90.0847 66° East 165 190 9,100  Level Chicago Center
07:31AM 41.1772 -90.0317 64° Northeast 161 185 9,100  Level Chicago Center
07:32AM 41.1947 -89.9736 68° East 166 191 9,100  Level Chicago Center
07:33AM 41.2111 -89.9175 69° East 164 189 9,100  Level Chicago Center
07:34AM 41.2294 -89.8603 67° East 165 190 9,100  Level Chicago Center
07:35AM 41.2467 -89.8050 67° East 164 189 9,100  Level Chicago Center
07:36AM 41.2686 -89.7408 66° East 159 183 9,100  Level Chicago Center
07:37AM 41.2861 -89.6847 67° East 162 186 9,100  Level Chicago Center
07:38AM 41.3028 -89.6294 68° East 162 186 9,100  Level Chicago Center
07:39AM 41.3206 -89.5756 66° East 159 183 9,100  Level Chicago Center
07:40AM 41.3381 -89.5217 67° East 159 183 9,100  Level Chicago Center
07:41AM 41.3528 -89.4650 71° East 161 185 9,100  Level Chicago Center
07:42AM 41.3689 -89.4100 69° East 161 185 9,100  Level Chicago Center
07:43AM 41.3858 -89.3561 67° East 158 182 9,100  Level Chicago Center
07:44AM 41.4058 -89.2908 68° East 158 182 9,100  Level Chicago Center
07:46AM 41.4228 -89.2342 68° East 161 185 9,100  Level Chicago Center
07:47AM 41.4394 -89.1789 68° East 162 186 9,100  Level Chicago Center
07:48AM 41.4564 -89.1233 68° East 162 186 9,100  Level Chicago Center
07:49AM 41.4750 -89.0694 65° Northeast 161 185 9,100  Level Chicago Center
07:50AM 41.4922 -89.0144 67° East 161 185 9,100  Level Chicago Center
07:51AM 41.5100 -88.9589 67° East 162 186 9,100  Level Chicago Center
07:52AM 41.5306 -88.8933 67° East 159 183 9,100 -120 Level Chicago Center
07:53AM 41.5492 -88.8383 66° East 162 186 8,900 -360 Descending Chicago Center
07:54AM 41.5653 -88.7758 71° East 175 201 8,400 -420 Descending Chicago Center
07:55AM 41.5842 -88.7142 68° East 178 205 8,100 -180 Descending Chicago Center
07:56AM 41.6025 -88.6569 67° East 170 196 8,100  Level Chicago Center
07:57AM 41.6200 -88.6022 67° East 163 188 8,100  Level Chicago Center
07:58AM 41.6469 -88.5400 60° Northeast 160 184 8,100  Level Chicago Center
07:59AM 41.6525 -88.4733 84° East 178 205 8,100 -240 Level Chicago Center
08:00AM 41.6669 -88.4100 73° East 181 208 7,700 -480 Descending Chicago Center
08:01AM 41.7086 -88.3808 28° Northeast 168 193 7,200 -300 Descending Chicago Center
08:02AM 41.7497 -88.3683 13° North 157 181 7,100 -180 Descending Chicago Center
08:03AM 41.7892 -88.3728 355° North 146 168 6,900 -600 Descending Chicago Center
08:04AM 41.8331 -88.3731 360° North 154 177 5,900 -780 Descending Chicago Center
08:05AM 41.8750 -88.3250 40° Northeast 164 189 5,300 -660 Descending Chicago Center
08:06AM 41.8936 -88.2647 67° East 177 204 4,600 -600 Descending Chicago Center
08:07AM 41.9167 -88.2075 62° Northeast 173 199 4,100 -360 Descending Chicago Center
08:08AM 41.9406 -88.1508 60° Northeast 175 201 3,900 -480 Descending Chicago Center
08:09AM 41.9647 -88.0922 61° Northeast 177 204 3,200 -780 Descending Chicago Center
08:10AM 41.9683 -88.0239 86° East 186 214 2,300 -900 Descending Chicago Center
08:11AM 41.9686 -87.9539 90° East 179 206 1,400 -900 Descending Chicago Center
08:13AM 41.9667 -87.9000 56° Northeast  Level FlightAware Approximate
08:20AM 41.9817 -87.9067 56° Northeast  Level Estimated